createdAt,value
2023-03-24T00:01:38.017Z,100.00
2023-03-24T00:04:07.534Z,100.00
2023-03-24T00:06:37.125Z,100.00
2023-03-24T00:09:06.967Z,100.00
2023-03-24T00:11:37.282Z,100.00
2023-03-24T00:14:07.338Z,100.00
2023-03-24T00:16:42.553Z,100.00
2023-03-24T00:19:13.679Z,100.00
2023-03-24T00:21:43.221Z,100.00
2023-03-24T00:24:14.805Z,100.00
2023-03-24T00:26:44.288Z,100.00
2023-03-24T00:29:14.365Z,100.00
2023-03-24T00:31:46.245Z,100.00
2023-03-24T00:34:15.673Z,100.00
2023-03-24T00:36:44.988Z,100.00
2023-03-24T00:39:15.598Z,100.00
2023-03-24T00:41:45.565Z,100.00
2023-03-24T00:44:18.328Z,100.00
2023-03-24T00:46:55.866Z,100.00
2023-03-24T00:49:42.077Z,100.00
2023-03-24T00:52:12.944Z,100.00
2023-03-24T00:54:43.726Z,100.00
2023-03-24T00:57:14.825Z,100.00
2023-03-24T00:59:49.200Z,100.00
2023-03-24T01:02:24.932Z,100.00
2023-03-24T01:04:56.584Z,100.00
2023-03-24T01:07:28.457Z,100.00
2023-03-24T01:10:00.096Z,100.00
2023-03-24T01:12:31.102Z,100.00
2023-03-24T01:15:01.390Z,100.00
2023-03-24T01:17:34.824Z,100.00
2023-03-24T01:20:08.183Z,100.00
2023-03-24T01:22:38.332Z,100.00
2023-03-24T01:25:09.550Z,100.00
2023-03-24T01:27:39.372Z,100.00
2023-03-24T01:30:10.762Z,100.00
2023-03-24T01:32:44.132Z,100.00
2023-03-24T01:35:14.858Z,100.00
2023-03-24T01:37:45.229Z,100.00
2023-03-24T01:40:20.797Z,100.00
2023-03-24T01:42:51.454Z,100.00
2023-03-24T01:45:51.260Z,100.00
2023-03-24T01:48:28.538Z,100.00
2023-03-24T01:51:03.907Z,100.00
2023-03-24T01:53:35.123Z,100.00
2023-03-24T01:56:06.203Z,100.00
2023-03-24T01:58:39.262Z,100.00
2023-03-24T02:01:10.433Z,100.00
2023-03-24T02:03:54.332Z,100.00
2023-03-24T02:06:26.313Z,100.00
2023-03-24T02:08:58.456Z,100.00
2023-03-24T02:11:31.363Z,100.00
2023-03-24T02:14:00.996Z,100.00
2023-03-24T02:16:45.687Z,100.00
2023-03-24T02:19:45.625Z,100.00
2023-03-24T02:22:34.564Z,100.00
2023-03-24T02:25:39.525Z,100.00
2023-03-24T02:28:21.196Z,100.00
2023-03-24T02:31:16.278Z,100.00
2023-03-24T02:37:50.262Z,100.00
2023-03-24T02:40:32.353Z,100.00
2023-03-24T02:43:26.039Z,100.00
2023-03-24T02:46:08.138Z,100.00
2023-03-24T02:48:42.744Z,100.00
2023-03-24T02:51:19.973Z,100.00
2023-03-24T02:53:57.150Z,100.00
2023-03-24T02:56:37.359Z,100.00
2023-03-24T02:59:12.854Z,100.00
2023-03-24T03:01:54.187Z,100.00
2023-03-24T03:04:29.609Z,100.00
2023-03-24T03:07:01.849Z,100.00
2023-03-24T03:09:32.266Z,100.00
2023-03-24T03:12:07.526Z,100.00
2023-03-24T03:14:40.839Z,100.00
2023-03-24T03:17:15.943Z,100.00
2023-03-24T03:19:50.451Z,100.00
2023-03-24T03:22:25.611Z,100.00
2023-03-24T03:24:58.521Z,100.00
2023-03-24T03:27:39.076Z,100.00
2023-03-24T03:30:15.267Z,100.00
2023-03-24T03:32:54.374Z,100.00
2023-03-24T03:35:28.666Z,100.00
2023-03-24T03:38:06.357Z,100.00
2023-03-24T03:40:40.335Z,100.00
2023-03-24T03:43:12.404Z,100.00
2023-03-24T03:45:41.827Z,100.00
2023-03-24T03:48:11.791Z,100.00
2023-03-24T03:50:41.348Z,100.00
2023-03-24T03:53:12.416Z,100.00
2023-03-24T03:55:41.818Z,100.00
2023-03-24T03:58:13.955Z,100.00
2023-03-24T04:00:44.914Z,100.00
2023-03-24T04:03:31.223Z,100.00
2023-03-24T04:06:09.014Z,100.00
2023-03-24T04:08:49.094Z,100.00
2023-03-24T04:11:48.514Z,100.00
2023-03-24T04:14:48.348Z,100.00
2023-03-24T04:17:30.071Z,100.00
2023-03-24T04:20:14.133Z,100.00
2023-03-24T04:23:00.277Z,100.00
2023-03-24T04:25:38.052Z,100.00
2023-03-24T04:28:16.065Z,100.00
2023-03-24T04:30:51.530Z,100.00
2023-03-24T04:33:29.041Z,100.00
2023-03-24T04:36:06.908Z,100.00
2023-03-24T04:38:38.516Z,100.00
2023-03-24T04:41:09.743Z,100.00
2023-03-24T04:43:39.141Z,100.00
2023-03-24T04:46:11.908Z,100.00
2023-03-24T04:48:41.328Z,100.00
2023-03-24T04:51:12.782Z,100.00
2023-03-24T04:53:42.121Z,100.00
2023-03-24T04:56:30.210Z,100.00
2023-03-24T04:59:00.061Z,100.00
2023-03-24T05:01:32.389Z,100.00
2023-03-24T05:04:03.984Z,100.00
2023-03-24T05:06:33.591Z,100.00
2023-03-24T05:09:04.120Z,100.00
2023-03-24T05:11:36.192Z,100.00
2023-03-24T05:14:05.628Z,100.00
2023-03-24T05:16:37.711Z,100.00
2023-03-24T05:19:07.435Z,100.00
2023-03-24T05:21:37.573Z,100.00
2023-03-24T05:24:07.190Z,100.00
2023-03-24T05:26:37.045Z,100.00
2023-03-24T05:29:06.493Z,100.00
2023-03-24T05:31:38.575Z,100.00
2023-03-24T05:34:08.146Z,100.00
2023-03-24T05:36:38.671Z,100.00
2023-03-24T05:39:08.097Z,100.00
2023-03-24T05:41:37.651Z,100.00
2023-03-24T05:44:07.062Z,100.00
2023-03-24T05:46:39.969Z,100.00
2023-03-24T05:49:09.418Z,100.00
2023-03-24T05:51:38.739Z,100.00
2023-03-24T05:54:08.761Z,100.00
2023-03-24T05:56:38.074Z,100.00
2023-03-24T05:59:07.480Z,100.00
2023-03-24T06:01:39.542Z,100.00
2023-03-24T06:04:08.958Z,100.00
2023-03-24T06:06:38.542Z,100.00
2023-03-24T06:09:07.920Z,100.00
2023-03-24T06:11:37.265Z,100.00
2023-03-24T06:14:07.729Z,100.00
2023-03-24T06:16:41.505Z,100.00
2023-03-24T06:19:11.343Z,100.00
2023-03-24T06:21:41.416Z,100.00
2023-03-24T06:24:15.573Z,100.00
2023-03-24T06:26:59.575Z,100.00
2023-03-24T06:29:34.612Z,100.00
2023-03-24T06:32:11.464Z,100.00
2023-03-24T06:34:41.414Z,100.00
2023-03-24T06:37:10.741Z,100.00
2023-03-24T06:39:40.678Z,100.00
2023-03-24T06:42:09.980Z,100.00
2023-03-24T06:44:39.305Z,100.00
2023-03-24T06:47:11.181Z,100.00
2023-03-24T06:49:40.495Z,100.00
2023-03-24T06:52:09.803Z,100.00
2023-03-24T06:54:40.589Z,100.00
2023-03-24T06:57:11.965Z,100.00
2023-03-24T06:59:41.360Z,100.00
2023-03-24T07:02:14.680Z,100.00
2023-03-24T07:04:44.126Z,100.00
2023-03-24T07:07:44.869Z,100.00
2023-03-24T07:10:05.104Z,100.00
2023-03-24T07:12:34.506Z,100.00
2023-03-24T07:15:04.504Z,100.00
2023-03-24T07:17:36.650Z,100.00
2023-03-24T07:20:11.035Z,100.00
2023-03-24T07:22:40.433Z,100.00
2023-03-24T07:25:10.824Z,100.00
2023-03-24T07:27:42.732Z,100.00
2023-03-24T07:30:12.729Z,100.00
2023-03-24T07:32:44.985Z,100.00
2023-03-24T07:35:16.510Z,100.00
2023-03-24T07:37:46.449Z,100.00
2023-03-24T07:40:16.983Z,100.00
2023-03-24T07:42:47.370Z,100.00
2023-03-24T07:45:16.939Z,100.00
2023-03-24T07:47:49.919Z,100.00
2023-03-24T07:50:19.510Z,100.00
2023-03-24T07:52:52.201Z,100.00
2023-03-24T07:55:21.877Z,100.00
2023-03-24T07:57:52.487Z,100.00
2023-03-24T08:00:25.133Z,100.00
2023-03-24T08:02:57.484Z,100.00
2023-03-24T08:05:27.889Z,100.00
2023-03-24T08:07:58.262Z,100.00
2023-03-24T08:10:29.485Z,100.00
2023-03-24T08:13:00.054Z,100.00
2023-03-24T08:15:30.660Z,100.00
2023-03-24T08:18:02.638Z,100.00
2023-03-24T08:20:32.294Z,100.00
2023-03-24T08:23:04.920Z,100.00
2023-03-24T08:25:35.337Z,100.00
2023-03-24T08:28:04.782Z,100.00
2023-03-24T08:30:34.819Z,100.00
2023-03-24T08:33:08.680Z,100.00
2023-03-24T08:35:40.036Z,100.00
2023-03-24T08:38:11.714Z,100.00
2023-03-24T08:40:43.527Z,100.00
2023-03-24T08:43:17.522Z,100.00
2023-03-24T08:45:47.135Z,100.00
2023-03-24T08:48:19.227Z,100.00
2023-03-24T08:50:48.539Z,100.00
2023-03-24T08:53:17.958Z,100.00
2023-03-24T08:55:47.425Z,100.00
2023-03-24T08:58:18.458Z,100.00
2023-03-24T09:00:49.733Z,100.00
2023-03-24T09:03:22.773Z,100.00
2023-03-24T09:05:53.216Z,100.00
2023-03-24T09:08:22.729Z,100.00
2023-03-24T09:10:52.876Z,100.00
2023-03-24T09:13:23.232Z,100.00
2023-03-24T09:15:54.681Z,100.00
2023-03-24T09:18:27.146Z,100.00
2023-03-24T09:20:56.673Z,100.00
2023-03-24T09:23:26.036Z,100.00
2023-03-24T09:25:56.055Z,100.00
2023-03-24T09:28:25.994Z,100.00
2023-03-24T09:31:00.282Z,100.00
2023-03-24T09:33:34.893Z,100.00
2023-03-24T09:36:07.129Z,100.00
2023-03-24T09:38:36.542Z,100.00
2023-03-24T09:41:06.925Z,100.00
2023-03-24T09:43:41.132Z,100.00
2023-03-24T09:46:15.230Z,100.00
2023-03-24T09:48:54.085Z,100.00
2023-03-24T09:51:26.265Z,100.00
2023-03-24T09:54:04.903Z,100.00
2023-03-24T09:56:36.228Z,100.00
2023-03-24T09:59:09.516Z,100.00
2023-03-24T10:01:38.968Z,100.00
2023-03-24T10:04:18.087Z,100.00
2023-03-24T10:06:49.170Z,100.00
2023-03-24T10:09:27.388Z,100.00
2023-03-24T10:12:11.047Z,100.00
2023-03-24T10:14:56.220Z,100.00
2023-03-24T10:17:32.709Z,100.00
2023-03-24T10:20:13.876Z,100.00
2023-03-24T10:22:53.530Z,100.00
2023-03-24T10:25:27.833Z,100.00
2023-03-24T10:28:02.440Z,100.00
2023-03-24T10:30:35.474Z,100.00
2023-03-24T10:33:06.200Z,99.68
2023-03-24T10:35:42.165Z,99.93
2023-03-24T10:38:18.753Z,98.21
2023-03-24T10:40:49.354Z,97.62
2023-03-24T10:43:20.219Z,98.88
2023-03-24T10:45:52.440Z,100.00
2023-03-24T10:48:38.656Z,97.47
2023-03-24T10:51:19.629Z,96.21
2023-03-24T10:53:50.774Z,97.14
2023-03-24T10:56:21.544Z,96.84
2023-03-24T10:58:51.333Z,96.43
2023-03-24T11:01:27.491Z,96.86
2023-03-24T11:04:04.229Z,97.98
2023-03-24T11:06:37.017Z,98.42
2023-03-24T11:09:21.308Z,98.66
2023-03-24T11:11:52.658Z,99.21
2023-03-24T11:14:27.471Z,98.00
2023-03-24T11:17:07.286Z,97.33
2023-03-24T11:19:38.232Z,97.18
2023-03-24T11:22:14.209Z,97.99
2023-03-24T11:24:43.715Z,96.37
2023-03-24T11:27:18.621Z,97.63
2023-03-24T11:29:53.986Z,95.64
2023-03-24T11:32:28.207Z,94.63
2023-03-24T11:35:05.332Z,95.15
2023-03-24T11:37:38.769Z,93.46
2023-03-24T11:40:19.280Z,95.06
2023-03-24T11:42:50.859Z,95.24
2023-03-24T11:45:26.687Z,92.26
2023-03-24T11:47:58.786Z,92.04
2023-03-24T11:50:32.448Z,91.13
2023-03-24T11:53:13.885Z,91.16
2023-03-24T11:55:49.664Z,93.73
2023-03-24T11:58:29.012Z,89.87
2023-03-24T12:01:05.225Z,87.23
2023-03-24T12:04:08.557Z,86.36
2023-03-24T12:06:58.411Z,86.36
2023-03-24T12:09:37.584Z,86.31
2023-03-24T12:12:20.389Z,82.48
2023-03-24T12:15:17.312Z,84.52
2023-03-24T12:18:08.902Z,83.26
2023-03-24T12:20:47.748Z,81.56
2023-03-24T12:23:22.855Z,81.42
2023-03-24T12:26:08.898Z,81.60
2023-03-24T12:28:53.933Z,82.33
2023-03-24T12:31:39.387Z,82.98
2023-03-24T12:34:23.013Z,82.43
2023-03-24T12:37:01.412Z,84.06
2023-03-24T12:39:33.169Z,81.20
2023-03-24T12:42:10.980Z,81.64
2023-03-24T12:44:54.370Z,80.68
2023-03-24T12:47:46.949Z,81.35
2023-03-24T12:50:29.437Z,80.40
2023-03-24T12:53:14.298Z,80.04
2023-03-24T12:55:48.647Z,80.59
2023-03-24T12:58:28.944Z,78.69
2023-03-24T13:01:04.194Z,77.64
2023-03-24T13:03:38.884Z,79.51
2023-03-24T13:06:18.878Z,79.86
2023-03-24T13:08:57.789Z,79.83
2023-03-24T13:11:37.928Z,80.60
2023-03-24T13:14:16.871Z,79.36
2023-03-24T13:16:49.226Z,79.64
2023-03-24T13:19:22.607Z,80.05
2023-03-24T13:21:56.475Z,79.57
2023-03-24T13:24:26.849Z,79.39
2023-03-24T13:27:03.173Z,80.10
2023-03-24T13:29:50.494Z,77.81
2023-03-24T13:32:29.475Z,79.19
2023-03-24T13:35:03.468Z,78.16
2023-03-24T13:37:37.601Z,78.58
2023-03-24T13:40:13.736Z,75.75
2023-03-24T13:42:46.822Z,76.71
2023-03-24T13:45:28.517Z,77.16
2023-03-24T13:48:08.619Z,75.80
2023-03-24T13:50:43.568Z,77.56
2023-03-24T13:53:17.579Z,76.86
2023-03-24T13:55:54.069Z,74.47
2023-03-24T13:58:26.292Z,74.07
2023-03-24T14:01:19.985Z,74.38
2023-03-24T14:04:10.063Z,73.99
2023-03-24T14:06:48.415Z,73.71
2023-03-24T14:09:23.843Z,74.48
2023-03-24T14:12:21.365Z,73.26
2023-03-24T14:15:15.524Z,73.21
2023-03-24T14:17:50.693Z,73.65
2023-03-24T14:20:37.341Z,74.52
2023-03-24T14:23:07.087Z,72.63
2023-03-24T14:25:37.343Z,73.89
2023-03-24T14:28:22.384Z,72.21
2023-03-24T14:31:10.296Z,73.74
2023-03-24T14:33:43.620Z,73.29
2023-03-24T14:36:17.310Z,72.50
2023-03-24T14:38:47.674Z,72.46
2023-03-24T14:41:23.459Z,71.29
2023-03-24T14:43:59.840Z,71.06
2023-03-24T14:46:52.011Z,71.16
2023-03-24T14:49:29.544Z,70.09
2023-03-24T14:52:11.531Z,70.25
2023-03-24T14:54:44.257Z,68.47
2023-03-24T14:57:20.344Z,67.93
2023-03-24T14:59:55.661Z,67.73
2023-03-24T15:02:32.433Z,67.94
2023-03-24T15:05:25.035Z,68.90
2023-03-24T15:08:14.144Z,68.23
2023-03-24T15:10:49.194Z,67.92
2023-03-24T15:13:32.032Z,68.74
2023-03-24T15:16:03.177Z,66.25
2023-03-24T15:18:32.942Z,67.69
2023-03-24T15:21:17.204Z,67.71
2023-03-24T15:23:50.466Z,68.16
2023-03-24T15:26:22.734Z,68.70
2023-03-24T15:28:59.998Z,67.60
2023-03-24T15:31:30.959Z,68.82
2023-03-24T15:34:09.114Z,70.19
2023-03-24T15:36:46.443Z,70.08
2023-03-24T15:39:21.901Z,68.65
2023-03-24T15:41:54.589Z,69.86
2023-03-24T15:44:28.309Z,70.30
2023-03-24T15:47:00.401Z,68.13
2023-03-24T15:49:34.206Z,70.34
2023-03-24T15:52:26.120Z,70.15
2023-03-24T15:54:57.749Z,71.63
2023-03-24T15:57:28.534Z,72.01
2023-03-24T16:00:16.393Z,73.73
2023-03-24T16:02:52.439Z,75.40
2023-03-24T16:05:24.563Z,76.06
2023-03-24T16:08:06.158Z,76.53
2023-03-24T16:10:40.329Z,77.26
2023-03-24T16:13:16.987Z,78.72
2023-03-24T16:15:48.250Z,77.87
2023-03-24T16:18:20.322Z,78.41
2023-03-24T16:20:51.912Z,78.41
2023-03-24T16:23:26.203Z,78.87
2023-03-24T16:25:56.227Z,78.85
2023-03-24T16:28:27.559Z,78.20
2023-03-24T16:31:02.495Z,79.03
2023-03-24T16:33:33.135Z,78.91
2023-03-24T16:36:02.888Z,79.83
2023-03-24T16:38:34.913Z,79.93
2023-03-24T16:41:04.464Z,80.16
2023-03-24T16:43:34.440Z,81.13
2023-03-24T16:46:05.556Z,82.32
2023-03-24T16:48:35.118Z,82.47
2023-03-24T16:51:04.631Z,83.22
2023-03-24T16:53:37.390Z,84.10
2023-03-24T16:56:07.560Z,84.60
2023-03-24T16:58:36.873Z,84.46
2023-03-24T17:01:07.115Z,84.51
2023-03-24T17:03:40.221Z,84.48
2023-03-24T17:06:20.527Z,84.43
2023-03-24T17:08:52.513Z,84.97
2023-03-24T17:11:28.446Z,84.92
2023-03-24T17:14:02.069Z,84.66
2023-03-24T17:16:32.376Z,85.64
2023-03-24T17:19:02.108Z,86.22
2023-03-24T17:21:32.290Z,86.96
2023-03-24T17:24:06.890Z,87.18
2023-03-24T17:26:36.223Z,86.83
2023-03-24T17:29:06.332Z,86.35
2023-03-24T17:31:35.994Z,86.71
2023-03-24T17:34:15.169Z,87.48
2023-03-24T17:36:51.774Z,87.74
2023-03-24T17:39:24.342Z,86.76
2023-03-24T17:41:57.658Z,86.95
2023-03-24T17:44:27.129Z,87.29
2023-03-24T17:46:56.520Z,87.54
2023-03-24T17:49:26.811Z,87.87
2023-03-24T17:51:56.130Z,88.44
2023-03-24T17:54:28.255Z,88.05
2023-03-24T17:56:57.612Z,88.62
2023-03-24T17:59:27.167Z,88.35
2023-03-24T18:01:56.564Z,88.32
2023-03-24T18:04:25.976Z,88.94
2023-03-24T18:06:56.208Z,89.76
2023-03-24T18:09:28.236Z,91.12
2023-03-24T18:11:57.984Z,91.00
2023-03-24T18:14:28.157Z,91.24
2023-03-24T18:16:57.521Z,91.56
2023-03-24T18:19:27.082Z,92.02
2023-03-24T18:21:56.416Z,92.07
2023-03-24T18:24:28.537Z,91.73
2023-03-24T18:26:57.880Z,91.34
2023-03-24T18:29:27.294Z,91.58
2023-03-24T18:31:57.542Z,92.03
2023-03-24T18:34:28.020Z,91.52
2023-03-24T18:36:57.508Z,91.59
2023-03-24T18:39:29.410Z,91.62
2023-03-24T18:41:58.739Z,92.18
2023-03-24T18:44:28.027Z,91.39
2023-03-24T18:46:57.311Z,92.32
2023-03-24T18:49:26.746Z,91.67
2023-03-24T18:51:56.034Z,91.15
2023-03-24T18:54:25.564Z,92.16
2023-03-24T18:56:58.571Z,92.92
2023-03-24T18:59:28.294Z,92.12
2023-03-24T19:01:58.201Z,91.68
2023-03-24T19:04:27.809Z,90.79
2023-03-24T19:06:57.115Z,91.37
2023-03-24T19:09:26.613Z,91.38
2023-03-24T19:11:58.580Z,91.51
2023-03-24T19:14:28.713Z,90.81
2023-03-24T19:16:59.821Z,91.23
2023-03-24T19:19:33.553Z,90.92
2023-03-24T19:22:04.002Z,90.17
2023-03-24T19:24:33.365Z,90.33
2023-03-24T19:27:05.343Z,90.04
2023-03-24T19:29:34.659Z,90.30
2023-03-24T19:32:04.032Z,90.38
2023-03-24T19:34:33.389Z,90.86
2023-03-24T19:37:02.696Z,90.91
2023-03-24T19:39:32.174Z,90.39
2023-03-24T19:42:04.444Z,90.65
2023-03-24T19:44:36.541Z,90.38
2023-03-24T19:47:06.340Z,90.50
2023-03-24T19:49:36.003Z,89.72
2023-03-24T19:52:06.540Z,90.81
2023-03-24T19:54:36.081Z,91.10
2023-03-24T19:57:05.519Z,91.05
2023-03-24T19:59:37.636Z,91.22
2023-03-24T20:02:07.033Z,91.72
2023-03-24T20:04:36.762Z,92.33
2023-03-24T20:07:06.771Z,92.45
2023-03-24T20:09:36.193Z,93.03
2023-03-24T20:12:05.523Z,93.20
2023-03-24T20:14:37.452Z,93.55
2023-03-24T20:17:06.780Z,93.21
2023-03-24T20:19:37.097Z,93.87
2023-03-24T20:22:06.425Z,94.37
2023-03-24T20:24:37.853Z,95.40
2023-03-24T20:27:07.552Z,95.92
2023-03-24T20:29:39.908Z,95.98
2023-03-24T20:32:10.216Z,95.51
2023-03-24T20:34:40.875Z,95.31
2023-03-24T20:37:10.558Z,95.96
2023-03-24T20:39:43.402Z,95.36
2023-03-24T20:42:12.871Z,96.91
2023-03-24T20:44:44.742Z,95.42
2023-03-24T20:47:14.061Z,95.31
2023-03-24T20:49:43.373Z,96.33
2023-03-24T20:52:14.380Z,95.16
2023-03-24T20:54:43.827Z,94.95
2023-03-24T20:57:13.212Z,95.06
2023-03-24T20:59:45.162Z,95.50
2023-03-24T21:02:15.606Z,96.07
2023-03-24T21:04:45.548Z,96.12
2023-03-24T21:07:14.828Z,96.22
2023-03-24T21:09:44.111Z,96.25
2023-03-24T21:12:13.454Z,95.17
2023-03-24T21:14:46.882Z,97.51
2023-03-24T21:17:20.669Z,96.53
2023-03-24T21:19:50.764Z,96.03
2023-03-24T21:22:21.363Z,95.68
2023-03-24T21:24:51.570Z,96.86
2023-03-24T21:27:21.332Z,97.61
2023-03-24T21:29:53.753Z,97.73
2023-03-24T21:32:23.052Z,97.85
2023-03-24T21:34:52.333Z,97.45
2023-03-24T21:37:25.589Z,97.19
2023-03-24T21:39:54.918Z,98.24
2023-03-24T21:42:24.216Z,98.56
2023-03-24T21:44:56.110Z,99.86
2023-03-24T21:47:25.518Z,99.97
2023-03-24T21:49:59.142Z,100.00
2023-03-24T21:52:29.534Z,100.00
2023-03-24T21:55:00.961Z,100.00
2023-03-24T21:57:30.305Z,100.00
2023-03-24T22:00:12.696Z,100.00
2023-03-24T22:02:45.296Z,100.00
2023-03-24T22:05:19.724Z,100.00
2023-03-24T22:07:49.421Z,100.00
2023-03-24T22:10:23.123Z,100.00
2023-03-24T22:12:52.929Z,100.00
2023-03-24T22:15:25.281Z,100.00
2023-03-24T22:17:54.649Z,100.00
2023-03-24T22:20:24.560Z,100.00
2023-03-24T22:22:53.892Z,100.00
2023-03-24T22:25:24.348Z,100.00
2023-03-24T22:27:56.150Z,100.00
2023-03-24T22:30:28.029Z,100.00
2023-03-24T22:32:57.388Z,100.00
2023-03-24T22:35:26.743Z,100.00
2023-03-24T22:37:56.058Z,100.00
2023-03-24T22:40:25.635Z,100.00
2023-03-24T22:42:54.985Z,100.00
2023-03-24T22:45:24.305Z,100.00
2023-03-24T22:47:56.472Z,100.00
2023-03-24T22:50:25.837Z,100.00
2023-03-24T22:52:55.168Z,100.00
2023-03-24T22:55:26.830Z,100.00
2023-03-24T22:57:56.125Z,100.00
2023-03-24T23:00:25.717Z,100.00
2023-03-24T23:02:57.699Z,100.00
2023-03-24T23:05:27.063Z,100.00
2023-03-24T23:07:56.514Z,100.00
2023-03-24T23:10:29.155Z,100.00
2023-03-24T23:12:58.475Z,100.00
2023-03-24T23:15:27.796Z,100.00
2023-03-24T23:18:00.593Z,100.00
2023-03-24T23:20:30.713Z,100.00
2023-03-24T23:23:01.000Z,100.00
2023-03-24T23:25:31.357Z,100.00
2023-03-24T23:28:06.118Z,100.00
2023-03-24T23:30:35.979Z,100.00
2023-03-24T23:33:08.405Z,100.00
2023-03-24T23:35:38.649Z,100.00
2023-03-24T23:38:08.651Z,100.00
2023-03-24T23:40:38.111Z,100.00
2023-03-24T23:43:07.527Z,100.00
2023-03-24T23:45:37.145Z,100.00
2023-03-24T23:48:09.214Z,100.00
2023-03-24T23:50:38.588Z,100.00
2023-03-24T23:53:07.990Z,100.00
2023-03-24T23:55:37.784Z,100.00
2023-03-24T23:58:07.081Z,100.00
